Time;durP1;ratioP1;P1;durP2;ratioP2;P2;SDS_P1;SDS_P2;PMS_P1;PMS_P2;Temp;Humidity;BMP_temperature;BMP_pressure;BME280_temperature;BME280_humidity;BME280_pressure;Samples;Min_cycle;Max_cycle;Signal;HPM_P1;HPM_P2
2020/12/04 00:01:51;;;;;;;67.32;18.80;;;;;;;-144.15;0.00;65763.66;10356990;28;20478;-68
2020/12/04 00:06:49;;;;;;;104.20;31.75;;;;;;;-144.15;0.00;65763.66;10357521;28;20036;-68
2020/12/04 00:11:46;;;;;;;57.30;19.25;;;;;;;-144.15;0.00;65763.66;10357226;28;20440;-67
2020/12/04 00:16:44;;;;;;;75.25;28.13;;;;;;;-144.15;0.00;65763.66;10356579;28;20044;-67
2020/12/04 00:21:43;;;;;;;89.03;41.97;;;;;;;-144.15;0.00;65763.66;10356518;28;20083;-66
2020/12/04 00:26:41;;;;;;;58.15;20.52;;;;;;;-144.15;0.00;65763.66;10356519;28;20036;-67
2020/12/04 00:31:38;;;;;;;56.53;18.48;;;;;;;-144.15;0.00;65763.66;10356559;28;20048;-68
2020/12/04 00:36:36;;;;;;;80.22;34.47;;;;;;;-144.15;0.00;65763.66;10356409;28;20059;-68
2020/12/04 00:41:35;;;;;;;79.55;33.30;;;;;;;-144.15;0.00;65763.66;10356853;28;20095;-68
2020/12/04 00:46:33;;;;;;;49.50;19.58;;;;;;;-144.15;0.00;65763.66;10355916;28;20036;-68
2020/12/04 00:51:31;;;;;;;72.10;25.92;;;;;;;-144.15;0.00;65763.66;10361881;28;20056;-68
2020/12/04 00:56:32;;;;;;;64.43;21.17;;;;;;;-144.15;0.00;65763.66;10363055;28;20055;-69
2020/12/04 01:01:35;;;;;;;;;;;;;;;-144.15;0.00;65763.66;10363509;28;20087;-68
2020/12/04 01:06:32;;;;;;;56.25;21.48;;;;;;;-144.15;0.00;65763.66;10362979;28;19954;-68
2020/12/04 01:11:31;;;;;;;75.07;19.55;;;;;;;-144.15;0.00;65763.66;10361287;28;20048;-68
2020/12/04 01:16:29;;;;;;;68.93;24.98;;;;;;;-144.15;0.00;65763.66;10362655;28;20052;-68
2020/12/04 01:21:28;;;;;;;45.08;25.02;;;;;;;-144.15;0.00;65763.66;10362466;28;20501;-69
2020/12/04 01:26:25;;;;;;;56.38;29.35;;;;;;;-144.15;0.00;65763.66;10361753;28;20044;-68
2020/12/04 01:31:23;;;;;;;66.15;18.58;;;;;;;-144.15;0.00;65763.66;10361742;28;20413;-68
2020/12/04 01:36:21;;;;;;;85.43;28.95;;;;;;;-144.15;0.00;65763.66;10361583;28;20072;-68
2020/12/04 01:41:20;;;;;;;139.45;42.05;;;;;;;-144.15;0.00;65763.66;10361263;28;20083;-67
2020/12/04 01:46:18;;;;;;;52.30;24.85;;;;;;;-144.15;0.00;65763.66;10361029;28;20067;-68
2020/12/04 01:51:17;;;;;;;100.15;28.50;;;;;;;-144.15;0.00;65763.66;10361246;28;20055;-68
2020/12/04 01:56:15;;;;;;;124.55;41.22;;;;;;;-144.15;0.00;65763.66;10360656;28;20068;-67
2020/12/04 02:01:17;;;;;;;113.60;30.45;;;;;;;-144.15;0.00;65763.66;10359739;28;20088;-67
2020/12/04 02:06:22;;;;;;;96.38;34.92;;;;;;;-144.15;0.00;65763.66;10360213;28;20071;-68
2020/12/04 02:11:23;;;;;;;118.88;35.47;;;;;;;-144.15;0.00;65763.66;10360492;28;20040;-68
2020/12/04 02:16:23;;;;;;;90.18;25.35;;;;;;;-144.15;0.00;65763.66;10360123;28;20055;-68
2020/12/04 02:21:22;;;;;;;112.68;33.00;;;;;;;-144.15;0.00;65763.66;10359733;28;20090;-67
2020/12/04 02:26:22;;;;;;;81.18;22.42;;;;;;;-144.15;0.00;65763.66;10359516;28;20040;-67
2020/12/04 02:31:21;;;;;;;77.35;19.40;;;;;;;-144.15;0.00;65763.66;10359567;28;20044;-68
2020/12/04 02:36:19;;;;;;;91.50;17.25;;;;;;;-144.15;0.00;65763.66;10359317;28;20040;-67
2020/12/04 02:41:17;;;;;;;69.65;21.73;;;;;;;-144.15;0.00;65763.66;10359036;28;20087;-67
2020/12/04 02:46:15;;;;;;;102.82;28.70;;;;;;;-144.15;0.00;65763.66;10358899;28;20063;-67
2020/12/04 02:51:13;;;;;;;74.90;20.80;;;;;;;-144.15;0.00;65763.66;10358577;28;20044;-67
2020/12/04 02:56:16;;;;;;;66.65;16.92;;;;;;;-144.15;0.00;65763.66;10358870;28;20052;-67
2020/12/04 03:01:14;;;;;;;99.28;34.05;;;;;;;-144.15;0.00;65763.66;10358501;28;20079;-67
2020/12/04 03:06:12;;;;;;;79.70;30.67;;;;;;;-144.15;0.00;65763.66;10358021;28;20393;-66
2020/12/04 03:11:10;;;;;;;77.88;22.70;;;;;;;-144.15;0.00;65763.66;10358363;28;20083;-67
2020/12/04 03:16:09;;;;;;;64.75;19.33;;;;;;;-144.15;0.00;65763.66;10358266;28;20048;-67
2020/12/04 03:21:08;;;;;;;71.90;29.42;;;;;;;-144.15;0.00;65763.66;10357762;28;20071;-67
2020/12/04 03:26:06;;;;;;;173.30;19.33;;;;;;;-144.15;0.00;65763.66;10358004;28;20075;-67
2020/12/04 03:31:03;;;;;;;74.88;20.42;;;;;;;-144.15;0.00;65763.66;10357770;28;20040;-67
2020/12/04 03:36:01;;;;;;;77.43;24.38;;;;;;;-144.15;0.00;65763.66;10357761;28;20150;-67
2020/12/04 03:41:00;;;;;;;92.88;30.00;;;;;;;-144.15;0.00;65763.66;10357149;28;20075;-67
2020/12/04 03:45:58;;;;;;;102.60;20.88;;;;;;;-144.15;0.00;65763.66;10357571;28;20051;-67
2020/12/04 03:50:55;;;;;;;68.00;17.10;;;;;;;-144.15;0.00;65763.66;10356966;28;20048;-67
2020/12/04 03:55:53;;;;;;;131.18;20.15;;;;;;;-144.15;0.00;65763.66;10356893;28;20457;-67
2020/12/04 04:00:52;;;;;;;34.53;18.70;;;;;;;-144.15;0.00;65763.66;10356955;28;20522;-67
2020/12/04 04:05:50;;;;;;;60.33;22.25;;;;;;;-144.15;0.00;65763.66;10357124;28;20409;-67
2020/12/04 04:10:47;;;;;;;95.65;33.33;;;;;;;-144.15;0.00;65763.66;10356503;28;20075;-67
2020/12/04 04:15:45;;;;;;;60.45;25.52;;;;;;;-144.15;0.00;65763.66;10356118;28;20540;-65
2020/12/04 04:20:44;;;;;;;62.40;15.57;;;;;;;-144.15;0.00;65763.66;10327022;28;20969;-67
2020/12/04 04:25:41;;;;;;;37.95;17.48;;;;;;;-144.15;0.00;65763.66;10352148;28;20074;-68
2020/12/04 04:30:39;;;;;;;72.28;17.85;;;;;;;-144.15;0.00;65763.66;10331983;28;20063;-67
2020/12/04 04:35:37;;;;;;;41.13;14.13;;;;;;;-144.15;0.00;65763.66;10340941;28;20066;-67
2020/12/04 04:40:37;;;;;;;87.72;21.00;;;;;;;-144.15;0.00;65763.66;10343230;28;20076;-67
2020/12/04 04:45:34;;;;;;;77.63;15.40;;;;;;;-144.15;0.00;65763.66;10322804;28;20516;-67
2020/12/04 04:50:33;;;;;;;36.88;8.40;;;;;;;-144.15;0.00;65763.66;10328075;28;20040;-67
2020/12/04 04:55:31;;;;;;;42.35;11.55;;;;;;;-144.15;0.00;65763.66;10351797;28;20052;-67
2020/12/04 05:00:29;;;;;;;38.90;12.30;;;;;;;-144.15;0.00;65763.66;10321568;28;20048;-68
2020/12/04 05:05:43;;;;;;;51.58;22.52;;;;;;;-144.15;0.00;65763.66;10322093;28;20501;-68
2020/12/04 05:10:42;;;;;;;46.65;20.33;;;;;;;-144.15;0.00;65763.66;10321949;28;20080;-66
2020/12/04 05:15:41;;;;;;;36.92;19.25;;;;;;;-144.15;0.00;65763.66;10341039;28;20059;-68
2020/12/04 05:20:42;;;;;;;70.30;24.23;;;;;;;-144.15;0.00;65763.66;10320939;28;20040;-66
2020/12/04 05:25:41;;;;;;;42.50;20.83;;;;;;;-144.15;0.00;65763.66;10327715;28;20524;-65
2020/12/04 05:30:41;;;;;;;39.83;21.05;;;;;;;-144.15;0.00;65763.66;10336631;28;20080;-66
2020/12/04 05:35:40;;;;;;;29.85;13.35;;;;;;;-144.15;0.00;65763.66;10328788;28;20044;-66
2020/12/04 05:40:38;;;;;;;136.98;60.97;;;;;;;-144.15;0.00;65763.66;10340192;28;20079;-67
2020/12/04 05:45:36;;;;;;;57.40;20.77;;;;;;;-144.15;0.00;65763.66;10320288;28;20095;-67
2020/12/04 05:50:35;;;;;;;60.05;19.50;;;;;;;-144.15;0.00;65763.66;10330136;28;20497;-67
2020/12/04 05:55:33;;;;;;;77.13;27.25;;;;;;;-144.15;0.00;65763.66;10314157;28;20072;-65
2020/12/04 06:00:31;;;;;;;49.88;18.60;;;;;;;-144.15;0.00;65763.66;10319251;28;20056;-65
2020/12/04 06:05:29;;;;;;;79.15;23.63;;;;;;;-144.15;0.00;65763.66;10318881;28;20071;-66
2020/12/04 06:10:29;;;;;;;45.60;20.98;;;;;;;-144.15;0.00;65763.66;10318480;28;20428;-65
2020/12/04 06:15:28;;;;;;;32.70;18.95;;;;;;;-144.15;0.00;65763.66;10319129;28;20074;-65
2020/12/04 06:20:26;;;;;;;34.95;21.02;;;;;;;-144.15;0.00;65763.66;10327493;28;20594;-64
2020/12/04 06:25:24;;;;;;;47.40;24.70;;;;;;;-144.15;0.00;65763.66;10352169;28;20091;-66
2020/12/04 06:30:22;;;;;;;44.65;17.30;;;;;;;-144.15;0.00;65763.66;10351789;28;20417;-66
2020/12/04 06:35:40;;;;;;;43.00;21.30;;;;;;;-144.15;0.00;65763.66;10318281;28;20032;-65
2020/12/04 06:40:39;;;;;;;35.97;18.42;;;;;;;-144.15;0.00;65763.66;10318209;28;20044;-64
2020/12/04 06:45:48;;;;;;;31.55;18.55;;;;;;;-144.15;0.00;65763.66;10317415;28;20076;-64
2020/12/04 06:50:48;;;;;;;33.08;20.98;;;;;;;-144.15;0.00;65763.66;10317286;28;20179;-64
2020/12/04 06:55:49;;;;;;;23.00;14.80;;;;;;;-144.15;0.00;65763.66;10316690;28;20064;-66
2020/12/04 07:00:56;;;;;;;18.58;11.65;;;;;;;-144.15;0.00;65763.66;10316626;28;20098;-64
2020/12/04 07:05:54;;;;;;;50.97;21.20;;;;;;;-144.15;0.00;65763.66;10316180;28;20076;-66
2020/12/04 07:10:53;;;;;;;108.32;43.70;;;;;;;-144.15;0.00;65763.66;10315961;28;20080;-67
2020/12/04 07:15:59;;;;;;;57.80;20.17;;;;;;;-144.15;0.00;65763.66;10316076;28;20051;-66
2020/12/04 07:20:57;;;;;;;86.78;32.08;;;;;;;-144.15;0.00;65763.66;10316620;28;20044;-67
2020/12/04 07:25:57;;;;;;;59.95;30.88;;;;;;;-144.15;0.00;65763.66;10321546;28;20071;-68
2020/12/04 07:30:55;;;;;;;49.92;24.83;;;;;;;-144.15;0.00;65763.66;10344854;28;20075;-73
2020/12/04 07:36:04;;;;;;;77.97;19.75;;;;;;;-144.15;0.00;65763.66;10314780;28;20044;-67
2020/12/04 07:41:02;;;;;;;99.07;24.02;;;;;;;-144.15;0.00;65763.66;10315827;28;20055;-68
2020/12/04 07:46:00;;;;;;;54.35;21.35;;;;;;;-144.15;0.00;65763.66;10315588;28;20504;-69
2020/12/04 07:51:01;;;;;;;90.25;25.52;;;;;;;-144.15;0.00;65763.66;10314148;28;20504;-66
2020/12/04 07:56:02;;;;;;;43.80;22.90;;;;;;;-144.15;0.00;65763.66;10315176;28;20041;-67
2020/12/04 08:01:03;;;;;;;49.63;18.63;;;;;;;-144.15;0.00;65763.66;10323081;28;20048;-68
2020/12/04 08:06:08;;;;;;;49.85;20.52;;;;;;;-144.15;0.00;65763.66;10336431;28;20072;-66
2020/12/04 08:11:08;;;;;;;40.90;24.42;;;;;;;-144.15;0.00;65763.66;10350293;28;20480;-72
2020/12/04 08:16:08;;;;;;;32.20;19.83;;;;;;;-144.15;0.00;65763.66;10321612;28;20052;-68
2020/12/04 08:21:06;;;;;;;31.92;19.52;;;;;;;-144.15;0.00;65763.66;10323202;28;20084;-67
2020/12/04 08:26:15;;;;;;;24.67;18.33;;;;;;;-144.15;0.00;65763.66;10328803;28;20067;-65
2020/12/04 08:31:22;;;;;;;30.30;19.80;;;;;;;-144.15;0.00;65763.66;10348753;28;20049;-65
2020/12/04 08:36:20;;;;;;;23.85;19.83;;;;;;;-144.15;0.00;65763.66;10336748;28;20141;-67
2020/12/04 08:41:18;;;;;;;37.75;23.60;;;;;;;-144.15;0.00;65763.66;10346203;28;20417;-66
2020/12/04 08:46:16;;;;;;;48.70;30.42;;;;;;;-144.15;0.00;65763.66;10321725;28;20084;-66
2020/12/04 08:51:15;;;;;;;38.53;18.05;;;;;;;-144.15;0.00;65763.66;10321184;28;20048;-66
2020/12/04 08:56:13;;;;;;;72.57;43.78;;;;;;;-144.15;0.00;65763.66;10321496;28;20190;-66
2020/12/04 09:01:14;;;;;;;38.45;26.63;;;;;;;-144.15;0.00;65763.66;10320715;28;20059;-66
2020/12/04 09:06:26;;;;;;;34.25;23.10;;;;;;;-144.15;0.00;65763.66;10320979;28;20044;-67
2020/12/04 09:11:24;;;;;;;43.72;30.25;;;;;;;-144.15;0.00;65763.66;10321102;28;20040;-68
2020/12/04 09:16:21;;;;;;;39.60;23.73;;;;;;;-144.15;0.00;65763.66;10320582;28;20068;-66
2020/12/04 09:21:19;;;;;;;43.95;29.20;;;;;;;-144.15;0.00;65763.66;10321288;28;20044;-67
2020/12/04 09:26:19;;;;;;;55.78;33.03;;;;;;;-144.15;0.00;65763.66;10328460;28;20102;-67
2020/12/04 09:31:17;;;;;;;39.92;28.38;;;;;;;-144.15;0.00;65763.66;10345898;28;20066;-70
2020/12/04 09:36:15;;;;;;;66.60;49.45;;;;;;;-144.15;0.00;65763.66;10319938;28;20416;-66
2020/12/04 09:41:12;;;;;;;45.10;33.10;;;;;;;-144.15;0.00;65763.66;10319922;28;20083;-66
2020/12/04 09:46:11;;;;;;;41.95;27.30;;;;;;;-144.15;0.00;65763.66;10320068;28;20079;-67
2020/12/04 09:51:09;;;;;;;71.22;47.70;;;;;;;-144.15;0.00;65763.66;10319186;28;20041;-67
2020/12/04 09:56:06;;;;;;;75.53;44.20;;;;;;;-144.15;0.00;65763.66;10318928;28;20041;-68
2020/12/04 10:01:04;;;;;;;71.07;47.25;;;;;;;-144.15;0.00;65763.66;10318927;28;20473;-67
2020/12/04 10:06:04;;;;;;;92.32;53.78;;;;;;;-144.15;0.00;65763.66;10318260;28;20464;-68
2020/12/04 10:11:02;;;;;;;131.02;73.30;;;;;;;-144.15;0.00;65763.66;10318271;28;20049;-68
2020/12/04 10:16:05;;;;;;;39.72;28.27;;;;;;;-144.15;0.00;65763.66;10318237;28;20053;-68
2020/12/04 10:21:04;;;;;;;51.25;30.50;;;;;;;-144.15;0.00;65763.66;10317205;28;20036;-67
2020/12/04 10:26:01;;;;;;;43.03;30.42;;;;;;;-144.15;0.00;65763.66;10323799;28;20515;-67
2020/12/04 10:30:59;;;;;;;44.58;30.42;;;;;;;-144.15;0.00;65763.66;10346151;28;20045;-67
2020/12/04 10:35:57;;;;;;;61.25;43.38;;;;;;;-144.15;0.00;65763.66;10317251;28;20052;-65
2020/12/04 10:40:56;;;;;;;55.28;34.25;;;;;;;-144.15;0.00;65763.66;10317883;28;20106;-67
2020/12/04 10:45:54;;;;;;;107.65;63.20;;;;;;;-144.15;0.00;65763.66;10316873;28;20509;-68
2020/12/04 10:50:52;;;;;;;108.35;69.45;;;;;;;-144.15;0.00;65763.66;10316963;28;20052;-67
2020/12/04 10:55:49;;;;;;;161.57;98.18;;;;;;;-144.15;0.00;65763.66;10317894;28;20410;-65
2020/12/04 11:00:50;;;;;;;127.38;67.80;;;;;;;-144.15;0.00;65763.66;10316259;28;20056;-67
2020/12/04 11:05:48;;;;;;;67.68;39.70;;;;;;;-144.15;0.00;65763.66;10316328;28;20076;-64
2020/12/04 11:10:46;;;;;;;105.43;62.05;;;;;;;-144.15;0.00;65763.66;10315905;28;20052;-68
2020/12/04 11:15:44;;;;;;;62.78;36.10;;;;;;;-144.15;0.00;65763.66;10311809;28;20158;-67
2020/12/04 11:20:44;;;;;;;73.70;44.10;;;;;;;-144.15;0.00;65763.66;10310478;28;20072;-67
2020/12/04 11:25:42;;;;;;;41.33;24.55;;;;;;;-144.15;0.00;65763.66;10313761;28;20064;-67
2020/12/04 11:30:40;;;;;;;51.42;32.70;;;;;;;-144.15;0.00;65763.66;10344697;28;20064;-67
2020/12/04 11:35:38;;;;;;;58.22;34.00;;;;;;;-144.15;0.00;65763.66;10324736;28;20040;-67
2020/12/04 11:40:36;;;;;;;274.50;189.23;;;;;;;-144.15;0.00;65763.66;10346584;28;20048;-68
2020/12/04 11:45:34;;;;;;;96.60;65.97;;;;;;;-144.15;0.00;65763.66;10314690;28;20060;-68
2020/12/04 11:50:32;;;;;;;59.33;40.53;;;;;;;-144.15;0.00;65763.66;10314734;28;20509;-67
2020/12/04 11:55:30;;;;;;;216.20;162.52;;;;;;;-144.15;0.00;65763.66;10313008;28;20048;-68
2020/12/04 12:00:29;;;;;;;153.90;109.18;;;;;;;-144.15;0.00;65763.66;10314587;28;20057;-67
2020/12/04 12:05:26;;;;;;;76.18;50.75;;;;;;;-144.15;0.00;65763.66;10315997;28;20512;-66
2020/12/04 12:10:25;;;;;;;105.22;79.65;;;;;;;-144.15;0.00;65763.66;10316003;28;20045;-67
2020/12/04 12:15:23;;;;;;;50.13;34.67;;;;;;;-144.15;0.00;65763.66;10315856;28;20048;-67
2020/12/04 12:20:22;;;;;;;39.03;26.95;;;;;;;-144.15;0.00;65763.66;10315864;28;20044;-66
2020/12/04 12:25:21;;;;;;;61.35;37.45;;;;;;;-144.15;0.00;65763.66;10316234;28;20513;-68
2020/12/04 12:30:34;;;;;;;69.28;37.20;;;;;;;-144.15;0.00;65763.66;10347102;28;20051;-67
2020/12/04 12:35:33;;;;;;;84.60;40.95;;;;;;;-144.15;0.00;65763.66;10313646;28;20429;-66
2020/12/04 12:40:31;;;;;;;57.13;32.67;;;;;;;-144.15;0.00;65763.66;10315329;28;20504;-66
2020/12/04 12:45:30;;;;;;;89.38;40.08;;;;;;;-144.15;0.00;65763.66;10319343;28;20508;-66
2020/12/04 12:50:28;;;;;;;136.52;65.28;;;;;;;-144.15;0.00;65763.66;10322611;28;20051;-67
2020/12/04 12:55:26;;;;;;;259.83;168.02;;;;;;;-144.15;0.00;65763.66;10322475;28;20099;-66
2020/12/04 13:00:24;;;;;;;171.68;89.75;;;;;;;-144.15;0.00;65763.66;10321584;28;20433;-67
2020/12/04 13:05:32;;;;;;;182.02;102.93;;;;;;;-144.15;0.00;65763.66;10321594;28;20083;-67
2020/12/04 13:10:35;;;;;;;160.02;86.93;;;;;;;-144.15;0.00;65763.66;10321924;28;20079;-66
2020/12/04 13:15:33;;;;;;;136.75;67.75;;;;;;;-144.15;0.00;65763.66;10321704;28;20044;-68
2020/12/04 13:20:30;;;;;;;233.05;74.38;;;;;;;-144.15;0.00;65763.66;10321532;28;20549;-66
2020/12/04 13:25:28;;;;;;;239.32;135.43;;;;;;;-144.15;0.00;65763.66;10317931;28;20075;-67
2020/12/04 13:30:27;;;;;;;166.30;79.47;;;;;;;-144.15;0.00;65763.66;10352419;28;20064;-67
2020/12/04 13:35:25;;;;;;;160.07;80.72;;;;;;;-144.15;0.00;65763.66;10317630;28;20509;-68
2020/12/04 13:40:22;;;;;;;425.50;199.18;;;;;;;-144.15;0.00;65763.66;10315184;28;20099;-67
2020/12/04 13:45:20;;;;;;;207.15;99.18;;;;;;;-144.15;0.00;65763.66;10316920;28;20084;-67
2020/12/04 13:50:19;;;;;;;153.45;74.30;;;;;;;-144.15;0.00;65763.66;10317013;28;20064;-67
2020/12/04 13:55:17;;;;;;;118.90;54.45;;;;;;;-144.15;0.00;65763.66;10317907;28;20040;-67
2020/12/04 14:00:14;;;;;;;137.32;58.75;;;;;;;-144.15;0.00;65763.66;10318991;28;20079;-67
2020/12/04 14:05:12;;;;;;;107.38;53.10;;;;;;;-144.15;0.00;65763.66;10319740;28;20501;-66
2020/12/04 14:10:11;;;;;;;70.00;45.92;;;;;;;-144.15;0.00;65763.66;10319730;28;20497;-68
2020/12/04 14:15:08;;;;;;;82.30;48.85;;;;;;;-144.15;0.00;65763.66;10318222;28;20080;-67
2020/12/04 14:20:06;;;;;;;63.63;39.08;;;;;;;-144.15;0.00;65763.66;10319091;28;20421;-67
2020/12/04 14:25:04;;;;;;;58.08;36.70;;;;;;;-144.15;0.00;65763.66;10311381;28;20056;-66
2020/12/04 14:30:04;;;;;;;92.15;68.05;;;;;;;-144.15;0.00;65763.66;10353200;28;20064;-67
2020/12/04 14:35:02;;;;;;;87.80;58.58;;;;;;;-144.15;0.00;65763.66;10318199;28;20045;-67
2020/12/04 14:45:14;;;;;;;129.55;79.40;;;;;;;-144.15;0.00;65763.66;10317844;28;20076;-67
2020/12/04 14:50:11;;;;;;;94.05;60.78;;;;;;;-144.15;0.00;65763.66;10317843;28;20489;-67
2020/12/04 14:55:10;;;;;;;91.45;58.63;;;;;;;-144.15;0.00;65763.66;10316881;28;20072;-67
2020/12/04 15:00:09;;;;;;;238.55;157.20;;;;;;;-144.15;0.00;65763.66;10316529;28;20056;-65
2020/12/04 15:05:09;;;;;;;129.02;91.60;;;;;;;-144.15;0.00;65763.66;10348059;28;20098;-67
2020/12/04 15:10:07;;;;;;;72.38;49.08;;;;;;;-144.15;0.00;65763.66;10355433;28;20072;-67
2020/12/04 15:15:06;;;;;;;106.20;62.35;;;;;;;-144.15;0.00;65763.66;10358316;28;20059;-68
2020/12/04 15:20:04;;;;;;;474.25;166.88;;;;;;;-144.15;0.00;65763.66;10324752;28;20068;-67
2020/12/04 15:25:03;;;;;;;387.48;109.55;;;;;;;-144.15;0.00;65763.66;10356529;28;20079;-67
2020/12/04 15:30:01;;;;;;;338.77;92.38;;;;;;;-144.15;0.00;65763.66;10357609;28;20044;-66
2020/12/04 15:34:59;;;;;;;247.13;100.60;;;;;;;-144.15;0.00;65763.66;10342615;28;20072;-66
2020/12/04 15:39:57;;;;;;;428.60;120.07;;;;;;;-144.15;0.00;65763.66;10337004;28;20040;-67
2020/12/04 15:44:55;;;;;;;310.77;138.65;;;;;;;-144.15;0.00;65763.66;10338949;28;20483;-67
2020/12/04 15:49:53;;;;;;;190.80;79.43;;;;;;;-144.15;0.00;65763.66;10316029;28;20072;-66
2020/12/04 15:54:52;;;;;;;199.02;63.47;;;;;;;-144.15;0.00;65763.66;10316821;28;20052;-66
2020/12/04 15:59:50;;;;;;;207.27;70.22;;;;;;;-144.15;0.00;65763.66;10315933;28;20083;-66
2020/12/04 16:04:48;;;;;;;264.05;90.93;;;;;;;-144.15;0.00;65763.66;10316676;28;20087;-66
2020/12/04 16:09:46;;;;;;;396.27;155.05;;;;;;;-144.15;0.00;65763.66;10316569;28;20051;-67
2020/12/04 16:14:44;;;;;;;152.55;60.65;;;;;;;-144.15;0.00;65763.66;10316464;28;20233;-66
2020/12/04 16:19:41;;;;;;;219.20;101.55;;;;;;;-144.15;0.00;65763.66;10317600;28;20051;-66
2020/12/04 16:24:42;;;;;;;191.00;110.85;;;;;;;-144.15;0.00;65763.66;10324249;28;20084;-67
2020/12/04 16:29:40;;;;;;;312.50;119.20;;;;;;;-144.15;0.00;65763.66;10323857;28;20072;-66
2020/12/04 16:34:37;;;;;;;672.67;198.48;;;;;;;-144.15;0.00;65763.66;10323892;28;20424;-68
2020/12/04 16:39:36;;;;;;;384.13;156.57;;;;;;;-144.15;0.00;65763.66;10323605;28;20044;-68
2020/12/04 16:44:34;;;;;;;885.70;264.40;;;;;;;-144.15;0.00;65763.66;10323225;28;20076;-68
2020/12/04 16:49:32;;;;;;;818.15;325.20;;;;;;;-144.15;0.00;65763.66;10323051;28;20318;-69
2020/12/04 16:54:30;;;;;;;237.73;53.78;;;;;;;-144.15;0.00;65763.66;10323032;28;20068;-67
2020/12/04 16:59:30;;;;;;;381.90;110.97;;;;;;;-144.15;0.00;65763.66;10321898;28;20052;-66
2020/12/04 17:04:28;;;;;;;208.85;111.28;;;;;;;-144.15;0.00;65763.66;10323020;28;20079;-67
2020/12/04 17:09:29;;;;;;;418.85;212.07;;;;;;;-144.15;0.00;65763.66;10322553;28;20044;-69
2020/12/04 17:14:27;;;;;;;338.08;117.45;;;;;;;-144.15;0.00;65763.66;10322288;28;20040;-68
2020/12/04 17:19:26;;;;;;;225.50;68.13;;;;;;;-144.15;0.00;65763.66;10321858;28;20048;-67
2020/12/04 17:24:24;;;;;;;228.65;106.82;;;;;;;-144.15;0.00;65763.66;10321857;28;20079;-69
2020/12/04 17:29:22;;;;;;;199.70;122.55;;;;;;;-144.15;0.00;65763.66;10321150;28;20079;-68
2020/12/04 17:34:20;;;;;;;132.90;82.82;;;;;;;-144.15;0.00;65763.66;10321291;28;20048;-68
2020/12/04 17:39:17;;;;;;;120.00;75.63;;;;;;;-144.15;0.00;65763.66;10321610;28;20056;-68
2020/12/04 17:44:16;;;;;;;108.25;70.97;;;;;;;-144.15;0.00;65763.66;10320991;28;20072;-67
2020/12/04 17:49:14;;;;;;;115.28;76.32;;;;;;;-144.15;0.00;65763.66;10320716;28;20040;-67
2020/12/04 17:54:12;;;;;;;84.55;55.85;;;;;;;-144.15;0.00;65763.66;10323591;28;20486;-69
2020/12/04 17:59:09;;;;;;;69.65;47.53;;;;;;;-144.15;0.00;65763.66;10332653;28;20072;-67
2020/12/04 18:04:13;;;;;;;66.43;44.22;;;;;;;-144.15;0.00;65763.66;10330172;28;20497;-68
2020/12/04 18:09:11;;;;;;;72.55;48.72;;;;;;;-144.15;0.00;65763.66;10322062;28;20067;-68
2020/12/04 18:14:08;;;;;;;79.47;50.88;;;;;;;-144.15;0.00;65763.66;10334735;28;20449;-65
2020/12/04 18:19:06;;;;;;;83.05;55.30;;;;;;;-144.15;0.00;65763.66;10325438;28;20080;-70
2020/12/04 18:24:05;;;;;;;116.55;79.53;;;;;;;-144.15;0.00;65763.66;10321445;28;20469;-65
2020/12/04 18:29:02;;;;;;;197.65;112.40;;;;;;;-144.15;0.00;65763.66;10330023;28;20072;-67
2020/12/04 18:34:02;;;;;;;171.45;105.32;;;;;;;-144.15;0.00;65763.66;10324400;28;20060;-68
2020/12/04 18:39:00;;;;;;;193.45;120.07;;;;;;;-144.15;0.00;65763.66;10334528;28;20094;-67
2020/12/04 18:43:58;;;;;;;187.27;120.95;;;;;;;-144.15;0.00;65763.66;10317507;28;20048;-67
2020/12/04 18:48:57;;;;;;;125.03;84.50;;;;;;;-144.15;0.00;65763.66;10334163;28;20060;-67
2020/12/04 18:53:54;;;;;;;105.38;74.95;;;;;;;-144.15;0.00;65763.66;10331664;28;20426;-68
2020/12/04 18:58:52;;;;;;;81.22;58.45;;;;;;;-144.15;0.00;65763.66;10320747;28;20102;-68
2020/12/04 19:03:51;;;;;;;67.97;50.47;;;;;;;-144.15;0.00;65763.66;10335115;28;20056;-68
2020/12/04 19:08:49;;;;;;;61.97;44.70;;;;;;;-144.15;0.00;65763.66;10331984;28;20485;-69
2020/12/04 19:13:47;;;;;;;85.50;57.55;;;;;;;-144.15;0.00;65763.66;10322300;28;20064;-69
2020/12/04 19:18:44;;;;;;;93.00;63.45;;;;;;;-144.15;0.00;65763.66;10326818;28;20489;-69
2020/12/04 19:23:45;;;;;;;120.60;76.85;;;;;;;-144.15;0.00;65763.66;10332174;28;20118;-67
2020/12/04 19:28:42;;;;;;;102.93;72.35;;;;;;;-144.15;0.00;65763.66;10346247;28;20646;-67
2020/12/04 19:33:40;;;;;;;75.80;55.65;;;;;;;-144.15;0.00;65763.66;10316099;28;20072;-67
2020/12/04 19:38:38;;;;;;;82.35;53.53;;;;;;;-144.15;0.00;65763.66;10337358;28;20432;-68
2020/12/04 19:43:36;;;;;;;75.07;52.97;;;;;;;-144.15;0.00;65763.66;10335948;28;20041;-68
2020/12/04 19:48:34;;;;;;;107.95;67.22;;;;;;;-144.15;0.00;65763.66;10315994;28;20084;-68
2020/12/04 19:53:32;;;;;;;128.18;84.30;;;;;;;-144.15;0.00;65763.66;10320404;28;20460;-68
2020/12/04 19:58:30;;;;;;;113.38;81.35;;;;;;;-144.15;0.00;65763.66;10342750;28;20052;-68
2020/12/04 20:03:29;;;;;;;86.85;62.72;;;;;;;-144.15;0.00;65763.66;10342491;28;20067;-69
2020/12/04 20:08:29;;;;;;;108.10;67.43;;;;;;;-144.15;0.00;65763.66;10324246;28;20076;-68
2020/12/04 20:13:26;;;;;;;107.65;66.72;;;;;;;-144.15;0.00;65763.66;10334663;28;20055;-68
2020/12/04 20:18:24;;;;;;;79.90;56.65;;;;;;;-144.15;0.00;65763.66;10323541;28;20072;-68
2020/12/04 20:23:25;;;;;;;65.22;43.00;;;;;;;-144.15;0.00;65763.66;10327852;28;20048;-68
2020/12/04 20:28:23;;;;;;;99.53;66.85;;;;;;;-144.15;0.00;65763.66;10364312;28;20079;-69
2020/12/04 20:33:20;;;;;;;100.72;61.33;;;;;;;-144.15;0.00;65763.66;10358101;28;20049;-68
2020/12/04 20:38:18;;;;;;;115.72;65.70;;;;;;;-144.15;0.00;65763.66;10323054;28;20446;-69
2020/12/04 20:43:16;;;;;;;127.63;74.70;;;;;;;-144.15;0.00;65763.66;10323797;28;20495;-69
2020/12/04 20:48:14;;;;;;;121.13;76.07;;;;;;;-144.15;0.00;65763.66;10329294;28;20457;-69
2020/12/04 20:53:12;;;;;;;111.15;59.45;;;;;;;-144.15;0.00;65763.66;10351555;28;20045;-69
2020/12/04 20:58:09;;;;;;;74.45;45.90;;;;;;;-144.15;0.00;65763.66;10333391;28;20072;-69
2020/12/04 21:03:08;;;;;;;93.15;52.95;;;;;;;-144.15;0.00;65763.66;10363734;28;20040;-67
2020/12/04 21:08:06;;;;;;;94.82;54.75;;;;;;;-144.15;0.00;65763.66;10342925;28;20118;-67
2020/12/04 21:13:04;;;;;;;95.93;57.13;;;;;;;-144.15;0.00;65763.66;10362452;28;20040;-66
2020/12/04 21:18:01;;;;;;;98.70;53.90;;;;;;;-144.15;0.00;65763.66;10362858;28;20083;-68
2020/12/04 21:23:00;;;;;;;75.63;46.88;;;;;;;-144.15;0.00;65763.66;10362399;28;20040;-68
2020/12/04 21:28:00;;;;;;;86.32;53.90;;;;;;;-144.15;0.00;65763.66;10362159;28;20082;-69
2020/12/04 21:32:58;;;;;;;77.35;45.90;;;;;;;-144.15;0.00;65763.66;10361434;28;20056;-69
2020/12/04 21:37:57;;;;;;;62.75;42.65;;;;;;;-144.15;0.00;65763.66;10361673;28;20052;-68
2020/12/04 21:42:55;;;;;;;65.72;50.42;;;;;;;-144.15;0.00;65763.66;10361486;28;20128;-67
2020/12/04 21:47:53;;;;;;;58.53;41.22;;;;;;;-144.15;0.00;65763.66;10361136;28;20477;-68
2020/12/04 21:52:51;;;;;;;71.43;42.40;;;;;;;-144.15;0.00;65763.66;10361073;28;20051;-70
2020/12/04 21:57:49;;;;;;;54.78;37.40;;;;;;;-144.15;0.00;65763.66;10360801;28;20063;-70
2020/12/04 22:02:47;;;;;;;58.70;40.58;;;;;;;-144.15;0.00;65763.66;10359836;28;20074;-69
2020/12/04 22:07:45;;;;;;;77.47;52.03;;;;;;;-144.15;0.00;65763.66;10359633;28;20076;-70
2020/12/04 22:12:43;;;;;;;62.63;42.22;;;;;;;-144.15;0.00;65763.66;10359515;28;20488;-68
2020/12/04 22:17:41;;;;;;;76.53;49.53;;;;;;;-144.15;0.00;65763.66;10358740;28;20080;-74
2020/12/04 22:22:40;;;;;;;76.43;50.30;;;;;;;-144.15;0.00;65763.66;10358191;28;20079;-70